sensor_id;sensor_type;location;lat;lon;timestamp;P1;durP1;ratioP1;P2;durP2;ratioP2
69410;SDS011;56604;48.652;9.194;2022-10-12T00:01:14;39.83;;;25.10;;
69410;SDS011;56604;48.652;9.194;2022-10-12T00:03:40;53.07;;;28.10;;
69410;SDS011;56604;48.652;9.194;2022-10-12T00:06:07;53.00;;;25.00;;
69410;SDS011;56604;48.652;9.194;2022-10-12T00:08:40;65.57;;;28.17;;
69410;SDS011;56604;48.652;9.194;2022-10-12T00:11:07;48.13;;;25.33;;
69410;SDS011;56604;48.652;9.194;2022-10-12T00:13:36;44.03;;;24.30;;
69410;SDS011;56604;48.652;9.194;2022-10-12T00:16:02;44.93;;;25.37;;
69410;SDS011;56604;48.652;9.194;2022-10-12T00:18:29;54.07;;;27.83;;
69410;SDS011;56604;48.652;9.194;2022-10-12T00:21:05;57.73;;;27.10;;
69410;SDS011;56604;48.652;9.194;2022-10-12T00:23:38;54.90;;;26.97;;
69410;SDS011;56604;48.652;9.194;2022-10-12T00:26:10;53.93;;;24.87;;
69410;SDS011;56604;48.652;9.194;2022-10-12T00:28:37;43.97;;;24.20;;
69410;SDS011;56604;48.652;9.194;2022-10-12T00:31:11;52.13;;;25.90;;
69410;SDS011;56604;48.652;9.194;2022-10-12T00:33:38;51.27;;;25.23;;
69410;SDS011;56604;48.652;9.194;2022-10-12T00:36:36;37.13;;;24.40;;
69410;SDS011;56604;48.652;9.194;2022-10-12T00:38:58;44.83;;;25.17;;
69410;SDS011;56604;48.652;9.194;2022-10-12T00:41:28;46.27;;;26.10;;
69410;SDS011;56604;48.652;9.194;2022-10-12T00:43:55;42.93;;;26.20;;
69410;SDS011;56604;48.652;9.194;2022-10-12T00:46:23;45.80;;;26.60;;
69410;SDS011;56604;48.652;9.194;2022-10-12T00:51:38;44.90;;;26.30;;
69410;SDS011;56604;48.652;9.194;2022-10-12T00:54:05;52.97;;;28.17;;
69410;SDS011;56604;48.652;9.194;2022-10-12T00:56:35;56.73;;;25.63;;
69410;SDS011;56604;48.652;9.194;2022-10-12T00:59:04;60.73;;;28.37;;
69410;SDS011;56604;48.652;9.194;2022-10-12T01:01:33;61.00;;;28.43;;
69410;SDS011;56604;48.652;9.194;2022-10-12T01:04:00;48.70;;;25.27;;
69410;SDS011;56604;48.652;9.194;2022-10-12T01:06:26;44.07;;;27.27;;
69410;SDS011;56604;48.652;9.194;2022-10-12T01:08:53;53.47;;;29.57;;
69410;SDS011;56604;48.652;9.194;2022-10-12T01:11:20;65.23;;;31.07;;
69410;SDS011;56604;48.652;9.194;2022-10-12T01:13:45;81.50;;;32.90;;
69410;SDS011;56604;48.652;9.194;2022-10-12T01:22:00;65.23;;;32.00;;
69410;SDS011;56604;48.652;9.194;2022-10-12T01:24:33;58.00;;;28.57;;
69410;SDS011;56604;48.652;9.194;2022-10-12T01:30:09;53.83;;;29.10;;
69410;SDS011;56604;48.652;9.194;2022-10-12T01:35:45;58.43;;;31.40;;
69410;SDS011;56604;48.652;9.194;2022-10-12T01:38:35;65.87;;;30.13;;
69410;SDS011;56604;48.652;9.194;2022-10-12T01:41:05;54.50;;;30.33;;
69410;SDS011;56604;48.652;9.194;2022-10-12T01:43:52;63.10;;;30.00;;
69410;SDS011;56604;48.652;9.194;2022-10-12T01:48:43;68.17;;;29.90;;
69410;SDS011;56604;48.652;9.194;2022-10-12T01:51:11;58.80;;;29.30;;
69410;SDS011;56604;48.652;9.194;2022-10-12T01:53:44;70.00;;;30.27;;
69410;SDS011;56604;48.652;9.194;2022-10-12T02:01:31;54.43;;;28.57;;
69410;SDS011;56604;48.652;9.194;2022-10-12T02:06:57;46.50;;;28.20;;
69410;SDS011;56604;48.652;9.194;2022-10-12T02:09:29;48.27;;;28.87;;
69410;SDS011;56604;48.652;9.194;2022-10-12T02:12:08;50.90;;;27.70;;
69410;SDS011;56604;48.652;9.194;2022-10-12T02:14:39;53.90;;;27.37;;
69410;SDS011;56604;48.652;9.194;2022-10-12T02:17:10;69.77;;;28.10;;
69410;SDS011;56604;48.652;9.194;2022-10-12T02:19:42;53.37;;;29.37;;
69410;SDS011;56604;48.652;9.194;2022-10-12T02:22:11;50.33;;;27.93;;
69410;SDS011;56604;48.652;9.194;2022-10-12T02:24:39;61.43;;;29.67;;
69410;SDS011;56604;48.652;9.194;2022-10-12T02:27:07;56.00;;;30.20;;
69410;SDS011;56604;48.652;9.194;2022-10-12T02:29:36;60.37;;;30.40;;
69410;SDS011;56604;48.652;9.194;2022-10-12T02:32:25;55.60;;;30.07;;
69410;SDS011;56604;48.652;9.194;2022-10-12T02:37:35;54.47;;;29.00;;
69410;SDS011;56604;48.652;9.194;2022-10-12T02:40:09;66.97;;;28.47;;
69410;SDS011;56604;48.652;9.194;2022-10-12T02:42:41;59.70;;;29.83;;
69410;SDS011;56604;48.652;9.194;2022-10-12T02:45:12;59.77;;;31.00;;
69410;SDS011;56604;48.652;9.194;2022-10-12T02:47:39;61.80;;;32.60;;
69410;SDS011;56604;48.652;9.194;2022-10-12T02:50:07;61.20;;;31.23;;
69410;SDS011;56604;48.652;9.194;2022-10-12T02:52:34;61.17;;;30.13;;
69410;SDS011;56604;48.652;9.194;2022-10-12T02:54:59;61.77;;;32.17;;
69410;SDS011;56604;48.652;9.194;2022-10-12T02:57:25;94.07;;;40.63;;
69410;SDS011;56604;48.652;9.194;2022-10-12T02:59:51;85.53;;;40.77;;
69410;SDS011;56604;48.652;9.194;2022-10-12T03:02:16;86.37;;;39.10;;
69410;SDS011;56604;48.652;9.194;2022-10-12T03:04:41;93.20;;;40.97;;
69410;SDS011;56604;48.652;9.194;2022-10-12T03:07:07;98.80;;;43.40;;
69410;SDS011;56604;48.652;9.194;2022-10-12T03:09:33;126.20;;;45.60;;
69410;SDS011;56604;48.652;9.194;2022-10-12T03:11:58;95.90;;;41.87;;
69410;SDS011;56604;48.652;9.194;2022-10-12T03:14:23;95.97;;;40.87;;
69410;SDS011;56604;48.652;9.194;2022-10-12T03:16:50;123.33;;;46.13;;
69410;SDS011;56604;48.652;9.194;2022-10-12T03:19:16;107.27;;;43.97;;
69410;SDS011;56604;48.652;9.194;2022-10-12T03:21:41;120.53;;;46.80;;
69410;SDS011;56604;48.652;9.194;2022-10-12T03:24:07;142.63;;;49.33;;
69410;SDS011;56604;48.652;9.194;2022-10-12T03:26:32;114.77;;;44.73;;
69410;SDS011;56604;48.652;9.194;2022-10-12T03:28:58;125.07;;;43.57;;
69410;SDS011;56604;48.652;9.194;2022-10-12T03:31:23;114.40;;;45.20;;
69410;SDS011;56604;48.652;9.194;2022-10-12T03:33:48;95.13;;;41.03;;
69410;SDS011;56604;48.652;9.194;2022-10-12T03:36:14;90.13;;;39.87;;
69410;SDS011;56604;48.652;9.194;2022-10-12T03:38:39;82.83;;;36.87;;
69410;SDS011;56604;48.652;9.194;2022-10-12T03:41:05;84.10;;;38.33;;
69410;SDS011;56604;48.652;9.194;2022-10-12T03:43:30;94.27;;;38.83;;
69410;SDS011;56604;48.652;9.194;2022-10-12T03:45:55;69.27;;;34.97;;
69410;SDS011;56604;48.652;9.194;2022-10-12T03:48:20;143.07;;;41.17;;
69410;SDS011;56604;48.652;9.194;2022-10-12T03:50:49;115.07;;;39.83;;
69410;SDS011;56604;48.652;9.194;2022-10-12T03:53:17;235.83;;;42.40;;
69410;SDS011;56604;48.652;9.194;2022-10-12T03:55:43;198.63;;;43.80;;
69410;SDS011;56604;48.652;9.194;2022-10-12T03:58:09;230.03;;;42.70;;
69410;SDS011;56604;48.652;9.194;2022-10-12T04:00:34;376.13;;;49.60;;
69410;SDS011;56604;48.652;9.194;2022-10-12T04:03:00;428.13;;;56.33;;
69410;SDS011;56604;48.652;9.194;2022-10-12T04:05:26;199.87;;;49.70;;
69410;SDS011;56604;48.652;9.194;2022-10-12T04:07:52;405.33;;;54.50;;
69410;SDS011;56604;48.652;9.194;2022-10-12T04:10:17;389.60;;;47.20;;
69410;SDS011;56604;48.652;9.194;2022-10-12T04:12:43;103.63;;;40.93;;
69410;SDS011;56604;48.652;9.194;2022-10-12T04:15:09;195.63;;;44.60;;
69410;SDS011;56604;48.652;9.194;2022-10-12T04:17:34;181.77;;;41.80;;
69410;SDS011;56604;48.652;9.194;2022-10-12T04:20:00;152.07;;;43.70;;
69410;SDS011;56604;48.652;9.194;2022-10-12T04:22:25;208.00;;;45.60;;
69410;SDS011;56604;48.652;9.194;2022-10-12T04:24:50;264.90;;;46.60;;
69410;SDS011;56604;48.652;9.194;2022-10-12T04:27:16;129.10;;;39.63;;
69410;SDS011;56604;48.652;9.194;2022-10-12T04:29:41;191.73;;;42.63;;
69410;SDS011;56604;48.652;9.194;2022-10-12T04:32:07;133.33;;;41.70;;
69410;SDS011;56604;48.652;9.194;2022-10-12T04:34:32;119.80;;;42.47;;
69410;SDS011;56604;48.652;9.194;2022-10-12T04:36:59;103.57;;;37.77;;
69410;SDS011;56604;48.652;9.194;2022-10-12T04:39:25;118.20;;;35.00;;
69410;SDS011;56604;48.652;9.194;2022-10-12T04:41:50;66.97;;;33.10;;
69410;SDS011;56604;48.652;9.194;2022-10-12T04:44:15;76.03;;;33.10;;
69410;SDS011;56604;48.652;9.194;2022-10-12T04:46:41;51.83;;;30.23;;
69410;SDS011;56604;48.652;9.194;2022-10-12T04:49:06;60.87;;;31.17;;
69410;SDS011;56604;48.652;9.194;2022-10-12T04:51:31;54.53;;;29.57;;
69410;SDS011;56604;48.652;9.194;2022-10-12T04:53:57;55.80;;;30.53;;
69410;SDS011;56604;48.652;9.194;2022-10-12T04:56:22;49.43;;;29.70;;
69410;SDS011;56604;48.652;9.194;2022-10-12T04:58:47;83.77;;;30.90;;
69410;SDS011;56604;48.652;9.194;2022-10-12T05:01:13;64.03;;;29.03;;
69410;SDS011;56604;48.652;9.194;2022-10-12T05:03:38;52.67;;;29.70;;
69410;SDS011;56604;48.652;9.194;2022-10-12T05:06:03;54.53;;;26.87;;
69410;SDS011;56604;48.652;9.194;2022-10-12T05:08:29;54.43;;;27.77;;
69410;SDS011;56604;48.652;9.194;2022-10-12T05:10:54;46.73;;;27.40;;
69410;SDS011;56604;48.652;9.194;2022-10-12T05:13:22;44.27;;;25.60;;
69410;SDS011;56604;48.652;9.194;2022-10-12T05:15:47;50.37;;;27.60;;
69410;SDS011;56604;48.652;9.194;2022-10-12T05:18:12;47.23;;;28.30;;
69410;SDS011;56604;48.652;9.194;2022-10-12T05:20:38;45.70;;;26.97;;
69410;SDS011;56604;48.652;9.194;2022-10-12T05:23:03;51.87;;;27.40;;
69410;SDS011;56604;48.652;9.194;2022-10-12T05:25:28;65.57;;;29.13;;
69410;SDS011;56604;48.652;9.194;2022-10-12T05:27:54;48.57;;;28.80;;
69410;SDS011;56604;48.652;9.194;2022-10-12T05:30:20;44.93;;;26.93;;
69410;SDS011;56604;48.652;9.194;2022-10-12T05:32:45;51.07;;;28.27;;
69410;SDS011;56604;48.652;9.194;2022-10-12T05:35:10;46.63;;;26.30;;
69410;SDS011;56604;48.652;9.194;2022-10-12T05:37:36;46.13;;;27.87;;
69410;SDS011;56604;48.652;9.194;2022-10-12T05:40:01;54.03;;;26.27;;
69410;SDS011;56604;48.652;9.194;2022-10-12T05:42:26;46.63;;;26.77;;
69410;SDS011;56604;48.652;9.194;2022-10-12T05:44:52;52.00;;;28.27;;
69410;SDS011;56604;48.652;9.194;2022-10-12T05:47:17;45.17;;;28.00;;
69410;SDS011;56604;48.652;9.194;2022-10-12T05:49:42;50.80;;;27.47;;
69410;SDS011;56604;48.652;9.194;2022-10-12T05:52:08;54.07;;;29.17;;
69410;SDS011;56604;48.652;9.194;2022-10-12T05:54:33;67.53;;;29.90;;
69410;SDS011;56604;48.652;9.194;2022-10-12T05:56:58;49.57;;;28.50;;
69410;SDS011;56604;48.652;9.194;2022-10-12T05:59:24;56.13;;;28.20;;
69410;SDS011;56604;48.652;9.194;2022-10-12T06:01:49;52.30;;;28.80;;
69410;SDS011;56604;48.652;9.194;2022-10-12T06:04:14;55.67;;;28.90;;
69410;SDS011;56604;48.652;9.194;2022-10-12T06:06:40;53.73;;;27.73;;
69410;SDS011;56604;48.652;9.194;2022-10-12T06:09:05;50.87;;;27.43;;
69410;SDS011;56604;48.652;9.194;2022-10-12T06:11:31;57.03;;;27.53;;
69410;SDS011;56604;48.652;9.194;2022-10-12T06:13:56;61.23;;;28.73;;
69410;SDS011;56604;48.652;9.194;2022-10-12T06:16:22;49.70;;;28.77;;
69410;SDS011;56604;48.652;9.194;2022-10-12T06:18:47;56.13;;;29.43;;
69410;SDS011;56604;48.652;9.194;2022-10-12T06:21:12;48.43;;;27.70;;
69410;SDS011;56604;48.652;9.194;2022-10-12T06:23:38;48.63;;;27.37;;
69410;SDS011;56604;48.652;9.194;2022-10-12T06:26:03;47.07;;;27.37;;
69410;SDS011;56604;48.652;9.194;2022-10-12T06:28:28;47.23;;;27.97;;
69410;SDS011;56604;48.652;9.194;2022-10-12T06:30:58;43.43;;;25.63;;
69410;SDS011;56604;48.652;9.194;2022-10-12T06:33:24;45.87;;;26.87;;
69410;SDS011;56604;48.652;9.194;2022-10-12T06:35:51;54.57;;;27.23;;
69410;SDS011;56604;48.652;9.194;2022-10-12T06:38:17;44.27;;;27.30;;
69410;SDS011;56604;48.652;9.194;2022-10-12T06:40:42;43.80;;;27.30;;
69410;SDS011;56604;48.652;9.194;2022-10-12T06:43:08;50.03;;;26.97;;
69410;SDS011;56604;48.652;9.194;2022-10-12T06:45:34;46.13;;;26.17;;
69410;SDS011;56604;48.652;9.194;2022-10-12T06:47:59;41.23;;;25.10;;
69410;SDS011;56604;48.652;9.194;2022-10-12T06:50:25;49.97;;;27.47;;
69410;SDS011;56604;48.652;9.194;2022-10-12T06:52:51;65.43;;;26.20;;
69410;SDS011;56604;48.652;9.194;2022-10-12T06:55:17;40.97;;;25.50;;
69410;SDS011;56604;48.652;9.194;2022-10-12T06:57:42;45.40;;;25.13;;
69410;SDS011;56604;48.652;9.194;2022-10-12T07:00:08;36.70;;;23.37;;
69410;SDS011;56604;48.652;9.194;2022-10-12T07:02:34;43.97;;;25.43;;
69410;SDS011;56604;48.652;9.194;2022-10-12T07:05:00;40.87;;;24.80;;
69410;SDS011;56604;48.652;9.194;2022-10-12T07:07:25;52.47;;;26.30;;
69410;SDS011;56604;48.652;9.194;2022-10-12T07:09:53;47.80;;;26.03;;
69410;SDS011;56604;48.652;9.194;2022-10-12T07:12:19;44.53;;;25.47;;
69410;SDS011;56604;48.652;9.194;2022-10-12T07:14:44;45.00;;;26.37;;
69410;SDS011;56604;48.652;9.194;2022-10-12T07:17:09;38.80;;;24.73;;
69410;SDS011;56604;48.652;9.194;2022-10-12T07:19:35;40.77;;;25.53;;
69410;SDS011;56604;48.652;9.194;2022-10-12T07:22:00;41.47;;;23.80;;
69410;SDS011;56604;48.652;9.194;2022-10-12T07:24:26;46.43;;;26.60;;
69410;SDS011;56604;48.652;9.194;2022-10-12T07:26:59;40.57;;;23.27;;
69410;SDS011;56604;48.652;9.194;2022-10-12T07:29:25;36.60;;;23.50;;
69410;SDS011;56604;48.652;9.194;2022-10-12T07:31:50;41.63;;;22.77;;
69410;SDS011;56604;48.652;9.194;2022-10-12T07:34:16;39.13;;;23.00;;
69410;SDS011;56604;48.652;9.194;2022-10-12T07:36:41;45.20;;;24.67;;
69410;SDS011;56604;48.652;9.194;2022-10-12T07:39:08;40.20;;;23.40;;
69410;SDS011;56604;48.652;9.194;2022-10-12T07:41:34;43.57;;;25.10;;
69410;SDS011;56604;48.652;9.194;2022-10-12T07:43:59;45.20;;;22.17;;
69410;SDS011;56604;48.652;9.194;2022-10-12T07:46:25;44.17;;;23.40;;
69410;SDS011;56604;48.652;9.194;2022-10-12T07:48:50;43.33;;;22.40;;
69410;SDS011;56604;48.652;9.194;2022-10-12T07:51:15;36.70;;;22.10;;
69410;SDS011;56604;48.652;9.194;2022-10-12T07:53:41;44.10;;;22.00;;
69410;SDS011;56604;48.652;9.194;2022-10-12T07:56:07;38.10;;;21.67;;
69410;SDS011;56604;48.652;9.194;2022-10-12T07:58:39;37.37;;;22.10;;
69410;SDS011;56604;48.652;9.194;2022-10-12T08:01:05;39.13;;;21.90;;
69410;SDS011;56604;48.652;9.194;2022-10-12T08:03:33;37.67;;;21.47;;
69410;SDS011;56604;48.652;9.194;2022-10-12T08:05:58;40.93;;;22.23;;
69410;SDS011;56604;48.652;9.194;2022-10-12T08:08:24;40.33;;;21.93;;
69410;SDS011;56604;48.652;9.194;2022-10-12T08:10:49;44.33;;;21.20;;
69410;SDS011;56604;48.652;9.194;2022-10-12T08:13:14;38.50;;;19.17;;
69410;SDS011;56604;48.652;9.194;2022-10-12T08:15:40;39.13;;;21.93;;
69410;SDS011;56604;48.652;9.194;2022-10-12T08:18:05;40.93;;;20.70;;
69410;SDS011;56604;48.652;9.194;2022-10-12T08:20:30;36.03;;;20.27;;
69410;SDS011;56604;48.652;9.194;2022-10-12T08:22:56;40.67;;;20.13;;
69410;SDS011;56604;48.652;9.194;2022-10-12T08:25:21;37.47;;;20.63;;
69410;SDS011;56604;48.652;9.194;2022-10-12T08:27:46;32.93;;;19.40;;
69410;SDS011;56604;48.652;9.194;2022-10-12T08:30:12;30.00;;;18.67;;
69410;SDS011;56604;48.652;9.194;2022-10-12T08:32:37;29.40;;;18.53;;
69410;SDS011;56604;48.652;9.194;2022-10-12T08:35:03;35.63;;;19.77;;
69410;SDS011;56604;48.652;9.194;2022-10-12T08:37:29;24.97;;;18.13;;
69410;SDS011;56604;48.652;9.194;2022-10-12T08:39:54;35.43;;;19.43;;
69410;SDS011;56604;48.652;9.194;2022-10-12T08:47:56;37.50;;;18.53;;
69410;SDS011;56604;48.652;9.194;2022-10-12T08:50:33;41.23;;;18.53;;
69410;SDS011;56604;48.652;9.194;2022-10-12T08:53:05;38.80;;;18.80;;
69410;SDS011;56604;48.652;9.194;2022-10-12T08:55:47;35.23;;;17.47;;
69410;SDS011;56604;48.652;9.194;2022-10-12T09:00:45;27.03;;;17.93;;
69410;SDS011;56604;48.652;9.194;2022-10-12T09:05:53;26.43;;;16.87;;
69410;SDS011;56604;48.652;9.194;2022-10-12T09:08:33;33.93;;;18.40;;
69410;SDS011;56604;48.652;9.194;2022-10-12T09:13:53;35.57;;;18.10;;
69410;SDS011;56604;48.652;9.194;2022-10-12T09:16:24;30.10;;;18.63;;
69410;SDS011;56604;48.652;9.194;2022-10-12T09:21:45;28.30;;;14.33;;
69410;SDS011;56604;48.652;9.194;2022-10-12T09:24:19;28.80;;;16.47;;
69410;SDS011;56604;48.652;9.194;2022-10-12T09:26:50;24.67;;;15.77;;
69410;SDS011;56604;48.652;9.194;2022-10-12T09:29:20;23.53;;;15.17;;
69410;SDS011;56604;48.652;9.194;2022-10-12T09:34:28;20.23;;;14.33;;
69410;SDS011;56604;48.652;9.194;2022-10-12T09:36:54;26.40;;;13.33;;
69410;SDS011;56604;48.652;9.194;2022-10-12T09:39:40;22.37;;;14.00;;
69410;SDS011;56604;48.652;9.194;2022-10-12T09:42:05;27.80;;;13.70;;
69410;SDS011;56604;48.652;9.194;2022-10-12T09:44:31;19.53;;;13.80;;
69410;SDS011;56604;48.652;9.194;2022-10-12T09:47:03;18.93;;;11.63;;
69410;SDS011;56604;48.652;9.194;2022-10-12T09:49:40;18.93;;;12.60;;
69410;SDS011;56604;48.652;9.194;2022-10-12T09:52:07;21.30;;;13.17;;
69410;SDS011;56604;48.652;9.194;2022-10-12T09:54:34;20.23;;;13.20;;
69410;SDS011;56604;48.652;9.194;2022-10-12T09:57:03;26.43;;;12.40;;
69410;SDS011;56604;48.652;9.194;2022-10-12T10:04:35;27.03;;;13.30;;
69410;SDS011;56604;48.652;9.194;2022-10-12T10:07:12;28.77;;;14.20;;
69410;SDS011;56604;48.652;9.194;2022-10-12T10:12:35;25.03;;;11.73;;
69410;SDS011;56604;48.652;9.194;2022-10-12T10:15:04;18.77;;;11.83;;
69410;SDS011;56604;48.652;9.194;2022-10-12T10:17:45;20.77;;;11.87;;
69410;SDS011;56604;48.652;9.194;2022-10-12T10:25:55;20.67;;;11.53;;
69410;SDS011;56604;48.652;9.194;2022-10-12T10:28:29;22.53;;;10.50;;
69410;SDS011;56604;48.652;9.194;2022-10-12T10:31:03;17.83;;;10.47;;
69410;SDS011;56604;48.652;9.194;2022-10-12T10:33:30;18.20;;;10.40;;
69410;SDS011;56604;48.652;9.194;2022-10-12T10:36:19;13.23;;;8.43;;
69410;SDS011;56604;48.652;9.194;2022-10-12T10:41:38;20.33;;;11.33;;
69410;SDS011;56604;48.652;9.194;2022-10-12T10:46:58;24.53;;;8.07;;
69410;SDS011;56604;48.652;9.194;2022-10-12T10:51:59;23.10;;;9.40;;
69410;SDS011;56604;48.652;9.194;2022-10-12T10:54:28;22.57;;;10.47;;
69410;SDS011;56604;48.652;9.194;2022-10-12T10:57:09;18.37;;;8.70;;
69410;SDS011;56604;48.652;9.194;2022-10-12T11:00:03;22.27;;;8.97;;
69410;SDS011;56604;48.652;9.194;2022-10-12T11:02:44;11.20;;;7.57;;
69410;SDS011;56604;48.652;9.194;2022-10-12T11:05:14;17.50;;;8.20;;
69410;SDS011;56604;48.652;9.194;2022-10-12T11:13:14;13.30;;;8.50;;
69410;SDS011;56604;48.652;9.194;2022-10-12T11:15:49;22.83;;;7.70;;
69410;SDS011;56604;48.652;9.194;2022-10-12T11:21:14;14.20;;;7.93;;
69410;SDS011;56604;48.652;9.194;2022-10-12T11:27:08;12.13;;;6.80;;
69410;SDS011;56604;48.652;9.194;2022-10-12T11:29:43;7.10;;;6.23;;
69410;SDS011;56604;48.652;9.194;2022-10-12T11:32:28;16.00;;;7.40;;
69410;SDS011;56604;48.652;9.194;2022-10-12T11:34:58;11.50;;;6.93;;
69410;SDS011;56604;48.652;9.194;2022-10-12T11:37:43;9.07;;;7.60;;
69410;SDS011;56604;48.652;9.194;2022-10-12T11:40:19;12.23;;;6.30;;
69410;SDS011;56604;48.652;9.194;2022-10-12T11:42:47;14.10;;;7.20;;
69410;SDS011;56604;48.652;9.194;2022-10-12T11:45:21;18.20;;;7.73;;
69410;SDS011;56604;48.652;9.194;2022-10-12T11:47:51;15.90;;;6.37;;
69410;SDS011;56604;48.652;9.194;2022-10-12T11:53:01;20.37;;;8.00;;
69410;SDS011;56604;48.652;9.194;2022-10-12T11:58:18;14.50;;;6.90;;
69410;SDS011;56604;48.652;9.194;2022-10-12T12:03:27;12.83;;;6.37;;
69410;SDS011;56604;48.652;9.194;2022-10-12T12:06:38;9.83;;;6.90;;
69410;SDS011;56604;48.652;9.194;2022-10-12T12:11:25;15.73;;;7.30;;
69410;SDS011;56604;48.652;9.194;2022-10-12T12:16:46;14.33;;;7.27;;
69410;SDS011;56604;48.652;9.194;2022-10-12T12:24:57;12.03;;;6.33;;
69410;SDS011;56604;48.652;9.194;2022-10-12T12:29:56;13.67;;;6.20;;
69410;SDS011;56604;48.652;9.194;2022-10-12T12:32:24;11.20;;;6.90;;
69410;SDS011;56604;48.652;9.194;2022-10-12T12:34:54;11.17;;;6.50;;
69410;SDS011;56604;48.652;9.194;2022-10-12T12:37:23;10.67;;;6.30;;
69410;SDS011;56604;48.652;9.194;2022-10-12T12:39:59;11.10;;;6.80;;
69410;SDS011;56604;48.652;9.194;2022-10-12T12:42:25;15.70;;;7.00;;
69410;SDS011;56604;48.652;9.194;2022-10-12T12:44:56;15.33;;;6.60;;
69410;SDS011;56604;48.652;9.194;2022-10-12T12:47:35;14.10;;;6.73;;
69410;SDS011;56604;48.652;9.194;2022-10-12T12:53:05;10.83;;;7.40;;
69410;SDS011;56604;48.652;9.194;2022-10-12T12:55:48;16.20;;;7.60;;
69410;SDS011;56604;48.652;9.194;2022-10-12T12:58:42;15.33;;;6.80;;
69410;SDS011;56604;48.652;9.194;2022-10-12T13:09:57;9.93;;;7.20;;
69410;SDS011;56604;48.652;9.194;2022-10-12T13:12:37;16.60;;;7.07;;
69410;SDS011;56604;48.652;9.194;2022-10-12T13:20:36;10.30;;;6.47;;
69410;SDS011;56604;48.652;9.194;2022-10-12T13:23:05;6.57;;;5.50;;
69410;SDS011;56604;48.652;9.194;2022-10-12T13:25:35;12.07;;;6.63;;
69410;SDS011;56604;48.652;9.194;2022-10-12T13:28:11;12.00;;;7.00;;
69410;SDS011;56604;48.652;9.194;2022-10-12T13:30:52;22.27;;;7.60;;
69410;SDS011;56604;48.652;9.194;2022-10-12T13:33:29;21.30;;;7.50;;
69410;SDS011;56604;48.652;9.194;2022-10-12T13:36:00;9.90;;;7.00;;
69410;SDS011;56604;48.652;9.194;2022-10-12T13:38:30;11.60;;;6.70;;
69410;SDS011;56604;48.652;9.194;2022-10-12T13:40:59;12.17;;;7.23;;
69410;SDS011;56604;48.652;9.194;2022-10-12T13:46:02;8.80;;;6.23;;
69410;SDS011;56604;48.652;9.194;2022-10-12T13:48:29;17.70;;;7.80;;
69410;SDS011;56604;48.652;9.194;2022-10-12T13:53:22;12.57;;;7.10;;
69410;SDS011;56604;48.652;9.194;2022-10-12T13:55:54;28.67;;;8.00;;
69410;SDS011;56604;48.652;9.194;2022-10-12T13:58:25;14.23;;;8.13;;
69410;SDS011;56604;48.652;9.194;2022-10-12T14:00:53;18.50;;;7.77;;
69410;SDS011;56604;48.652;9.194;2022-10-12T14:03:22;20.73;;;8.53;;
69410;SDS011;56604;48.652;9.194;2022-10-12T14:05:58;12.10;;;8.03;;
69410;SDS011;56604;48.652;9.194;2022-10-12T14:08:23;13.83;;;7.80;;
69410;SDS011;56604;48.652;9.194;2022-10-12T14:10:51;14.80;;;7.07;;
69410;SDS011;56604;48.652;9.194;2022-10-12T14:13:31;16.00;;;8.80;;
69410;SDS011;56604;48.652;9.194;2022-10-12T14:15:58;12.60;;;8.37;;
69410;SDS011;56604;48.652;9.194;2022-10-12T14:18:41;16.23;;;8.37;;
69410;SDS011;56604;48.652;9.194;2022-10-12T14:23:40;10.20;;;7.20;;
69410;SDS011;56604;48.652;9.194;2022-10-12T14:26:20;13.40;;;7.87;;
69410;SDS011;56604;48.652;9.194;2022-10-12T14:28:48;13.70;;;8.10;;
69410;SDS011;56604;48.652;9.194;2022-10-12T14:31:13;15.33;;;8.23;;
69410;SDS011;56604;48.652;9.194;2022-10-12T14:33:39;12.83;;;7.90;;
69410;SDS011;56604;48.652;9.194;2022-10-12T14:36:11;26.23;;;8.27;;
69410;SDS011;56604;48.652;9.194;2022-10-12T14:38:38;18.20;;;8.00;;
69410;SDS011;56604;48.652;9.194;2022-10-12T14:44:28;21.23;;;8.30;;
69410;SDS011;56604;48.652;9.194;2022-10-12T14:46:49;20.80;;;8.37;;
69410;SDS011;56604;48.652;9.194;2022-10-12T14:49:16;19.93;;;8.13;;
69410;SDS011;56604;48.652;9.194;2022-10-12T14:51:56;28.20;;;8.60;;
69410;SDS011;56604;48.652;9.194;2022-10-12T14:54:23;16.07;;;8.13;;
69410;SDS011;56604;48.652;9.194;2022-10-12T14:56:48;20.17;;;8.60;;
69410;SDS011;56604;48.652;9.194;2022-10-12T14:59:14;19.70;;;7.70;;
69410;SDS011;56604;48.652;9.194;2022-10-12T15:01:39;12.53;;;8.20;;
69410;SDS011;56604;48.652;9.194;2022-10-12T15:04:05;19.27;;;7.90;;
69410;SDS011;56604;48.652;9.194;2022-10-12T15:06:30;24.17;;;9.10;;
69410;SDS011;56604;48.652;9.194;2022-10-12T15:08:55;10.90;;;8.10;;
69410;SDS011;56604;48.652;9.194;2022-10-12T15:11:21;15.70;;;7.80;;
69410;SDS011;56604;48.652;9.194;2022-10-12T15:13:46;20.43;;;7.80;;
69410;SDS011;56604;48.652;9.194;2022-10-12T15:16:15;17.20;;;8.20;;
69410;SDS011;56604;48.652;9.194;2022-10-12T15:18:44;20.80;;;7.83;;
69410;SDS011;56604;48.652;9.194;2022-10-12T15:21:09;18.00;;;7.87;;
69410;SDS011;56604;48.652;9.194;2022-10-12T15:23:35;13.00;;;7.60;;
69410;SDS011;56604;48.652;9.194;2022-10-12T15:26:00;13.80;;;7.37;;
69410;SDS011;56604;48.652;9.194;2022-10-12T15:28:25;18.30;;;7.63;;
69410;SDS011;56604;48.652;9.194;2022-10-12T15:30:57;17.40;;;8.33;;
69410;SDS011;56604;48.652;9.194;2022-10-12T15:33:26;19.63;;;8.30;;
69410;SDS011;56604;48.652;9.194;2022-10-12T15:35:52;18.00;;;8.30;;
69410;SDS011;56604;48.652;9.194;2022-10-12T15:38:17;14.67;;;8.47;;
69410;SDS011;56604;48.652;9.194;2022-10-12T15:40:43;26.37;;;9.07;;
69410;SDS011;56604;48.652;9.194;2022-10-12T15:43:10;15.30;;;8.40;;
69410;SDS011;56604;48.652;9.194;2022-10-12T15:45:36;20.17;;;8.67;;
69410;SDS011;56604;48.652;9.194;2022-10-12T15:48:03;22.40;;;8.93;;
69410;SDS011;56604;48.652;9.194;2022-10-12T15:50:48;21.57;;;8.97;;
69410;SDS011;56604;48.652;9.194;2022-10-12T15:53:15;26.53;;;8.63;;
69410;SDS011;56604;48.652;9.194;2022-10-12T15:55:47;24.03;;;8.80;;
69410;SDS011;56604;48.652;9.194;2022-10-12T15:58:13;20.63;;;9.20;;
69410;SDS011;56604;48.652;9.194;2022-10-12T16:00:38;16.53;;;9.00;;
69410;SDS011;56604;48.652;9.194;2022-10-12T16:03:03;19.30;;;8.90;;
69410;SDS011;56604;48.652;9.194;2022-10-12T16:07:56;22.00;;;11.20;;
69410;SDS011;56604;48.652;9.194;2022-10-12T16:10:23;26.50;;;12.03;;
69410;SDS011;56604;48.652;9.194;2022-10-12T16:12:51;28.33;;;11.43;;
69410;SDS011;56604;48.652;9.194;2022-10-12T16:15:18;33.83;;;12.03;;
69410;SDS011;56604;48.652;9.194;2022-10-12T16:17:47;24.07;;;11.10;;
69410;SDS011;56604;48.652;9.194;2022-10-12T16:20:12;20.03;;;10.83;;
69410;SDS011;56604;48.652;9.194;2022-10-12T16:22:38;19.77;;;11.10;;
69410;SDS011;56604;48.652;9.194;2022-10-12T16:25:04;29.93;;;12.50;;
69410;SDS011;56604;48.652;9.194;2022-10-12T16:27:31;19.00;;;10.60;;
69410;SDS011;56604;48.652;9.194;2022-10-12T16:29:57;23.23;;;11.50;;
69410;SDS011;56604;48.652;9.194;2022-10-12T16:32:23;28.10;;;11.30;;
69410;SDS011;56604;48.652;9.194;2022-10-12T16:34:48;20.87;;;10.63;;
69410;SDS011;56604;48.652;9.194;2022-10-12T16:37:13;25.97;;;11.47;;
69410;SDS011;56604;48.652;9.194;2022-10-12T16:39:40;28.07;;;12.03;;
69410;SDS011;56604;48.652;9.194;2022-10-12T16:42:05;31.90;;;13.00;;
69410;SDS011;56604;48.652;9.194;2022-10-12T16:44:30;23.30;;;12.70;;